Time,TemperatureF,DewpointF,PressureIn,WindDirection,WindDirectionDegrees,WindSpeedMPH,WindSpeedGustMPH,Humidity,HourlyPrecipIn,Conditions,Clouds,dailyrainin,SoftwareType,DateUTC
2013-03-21 00:00:00,37.6,24.0,29.74,ESE,121,0.0,1.0,58,0.00,,,0.00,weatherlink.com 1.10,2013-03-21 06:00:00,
2013-03-21 00:15:00,36.9,24.0,29.74,SE,128,0.0,1.0,60,0.00,,,0.00,weatherlink.com 1.10,2013-03-21 06:15:00,
2013-03-21 00:30:00,36.3,23.0,29.73,SE,128,1.0,1.0,60,0.00,,,0.00,weatherlink.com 1.10,2013-03-21 06:30:00,
2013-03-21 00:45:00,37.1,23.0,29.74,East,86,0.0,1.0,58,0.00,,,0.00,weatherlink.com 1.10,2013-03-21 06:45:00,
2013-03-21 01:00:00,37.2,23.0,29.73,East,92,0.0,2.0,58,0.00,,,0.00,weatherlink.com 1.10,2013-03-21 07:00:00,
2013-03-21 01:15:00,38.1,23.0,29.73,NNW,328,0.0,5.0,55,0.00,,,0.00,weatherlink.com 1.10,2013-03-21 07:15:00,
2013-03-21 01:30:00,37.9,23.0,29.73,SSE,165,0.0,1.0,55,0.00,,,0.00,weatherlink.com 1.10,2013-03-21 07:30:00,
2013-03-21 01:45:00,38.0,23.0,29.72,WSW,238,0.0,3.0,54,0.00,,,0.00,weatherlink.com 1.10,2013-03-21 07:45:00,
2013-03-21 02:00:00,37.9,22.0,29.72,South,179,0.0,2.0,54,0.00,,,0.00,weatherlink.com 1.10,2013-03-21 08:00:00,
2013-03-21 02:15:00,37.2,23.0,29.71,South,177,0.0,1.0,56,0.00,,,0.00,weatherlink.com 1.10,2013-03-21 08:15:00,
2013-03-21 02:31:00,36.5,22.0,29.70,SSE,155,0.0,3.0,57,0.00,,,0.00,weatherlink.com 1.10,2013-03-21 08:31:00,
2013-03-21 02:46:00,36.4,22.0,29.70,SSW,203,1.0,2.0,57,0.00,,,0.00,weatherlink.com 1.10,2013-03-21 08:46:00,
2013-03-21 03:01:00,36.4,22.0,29.69,SW,222,0.0,2.0,56,0.00,,,0.00,weatherlink.com 1.10,2013-03-21 09:01:00,
2013-03-21 03:16:00,36.3,22.0,29.69,SW,214,1.0,2.0,56,0.00,,,0.00,weatherlink.com 1.10,2013-03-21 09:16:00,
2013-03-21 03:31:00,36.4,22.0,29.68,SSE,162,0.0,2.0,56,0.00,,,0.00,weatherlink.com 1.10,2013-03-21 09:31:00,
2013-03-21 03:46:00,36.2,22.0,29.67,South,191,1.0,2.0,56,0.00,,,0.00,weatherlink.com 1.10,2013-03-21 09:46:00,
2013-03-21 04:01:00,35.9,22.0,29.66,SSE,159,0.0,2.0,57,0.00,,,0.00,weatherlink.com 1.10,2013-03-21 10:01:00,
2013-03-21 04:16:00,35.6,22.0,29.66,SW,222,0.0,1.0,57,0.00,,,0.00,weatherlink.com 1.10,2013-03-21 10:16:00,
2013-03-21 04:31:00,35.3,22.0,29.65,WSW,239,1.0,3.0,58,0.00,,,0.00,weatherlink.com 1.10,2013-03-21 10:31:00,
2013-03-21 04:46:00,34.8,22.0,29.64,SSW,200,0.0,3.0,61,0.00,,,0.00,weatherlink.com 1.10,2013-03-21 10:46:00,
2013-03-21 05:01:00,34.8,22.0,29.64,South,176,2.0,3.0,61,0.00,,,0.00,weatherlink.com 1.10,2013-03-21 11:01:00,
2013-03-21 05:16:00,34.8,22.0,29.63,SSW,197,0.0,4.0,60,0.00,,,0.00,weatherlink.com 1.10,2013-03-21 11:16:00,
2013-03-21 05:31:00,35.0,22.0,29.63,SSW,197,0.0,2.0,60,0.00,,,0.00,weatherlink.com 1.10,2013-03-21 11:31:00,
2013-03-21 05:46:00,34.9,22.0,29.62,SSW,207,0.0,1.0,60,0.00,,,0.00,weatherlink.com 1.10,2013-03-21 11:46:00,
2013-03-21 06:01:00,34.8,22.0,29.62,SSW,204,0.0,2.0,60,0.00,,,0.00,weatherlink.com 1.10,2013-03-21 12:01:00,
2013-03-21 06:16:00,35.1,22.0,29.61,South,173,0.0,3.0,60,0.00,,,0.00,weatherlink.com 1.10,2013-03-21 12:16:00,
2013-03-21 06:31:00,35.5,23.0,29.61,SSW,210,0.0,2.0,60,0.00,,,0.00,weatherlink.com 1.10,2013-03-21 12:31:00,
2013-03-21 06:46:00,36.2,23.0,29.61,SW,217,1.0,3.0,58,0.00,,,0.00,weatherlink.com 1.10,2013-03-21 12:46:00,
2013-03-21 07:01:00,36.8,23.0,29.61,South,173,1.0,3.0,57,0.00,,,0.00,weatherlink.com 1.10,2013-03-21 13:01:00,
2013-03-21 07:16:00,37.3,23.0,29.59,South,172,0.0,1.0,56,0.00,,,0.00,weatherlink.com 1.10,2013-03-21 13:16:00,
2013-03-21 07:31:00,38.1,23.0,29.59,ESE,118,0.0,1.0,54,0.00,,,0.00,weatherlink.com 1.10,2013-03-21 13:31:00,
2013-03-21 07:46:00,38.8,23.0,29.59,South,169,0.0,1.0,54,0.00,,,0.00,weatherlink.com 1.10,2013-03-21 13:46:00,
2013-03-21 08:01:00,39.3,23.0,29.59,SW,225,0.0,1.0,53,0.00,,,0.00,weatherlink.com 1.10,2013-03-21 14:01:00,
2013-03-21 08:16:00,39.9,24.0,29.59,SW,225,0.0,0.0,54,0.00,,,0.00,weatherlink.com 1.10,2013-03-21 14:16:00,
2013-03-21 08:31:00,40.3,24.0,29.58,South,190,0.0,2.0,53,0.00,,,0.00,weatherlink.com 1.10,2013-03-21 14:31:00,
2013-03-21 08:46:00,40.6,24.0,29.57,South,190,0.0,1.0,52,0.00,,,0.00,weatherlink.com 1.10,2013-03-21 14:46:00,
2013-03-21 09:16:00,42.7,25.0,29.57,South,172,2.0,5.0,50,0.00,,,0.00,weatherlink.com 1.10,2013-03-21 15:16:00,
2013-03-21 09:32:00,44.6,24.0,29.56,NNE,29,0.0,1.0,44,0.00,,,0.00,weatherlink.com 1.10,2013-03-21 15:32:00,
2013-03-21 09:47:00,45.7,24.0,29.54,East,97,1.0,1.0,43,0.00,,,0.00,weatherlink.com 1.10,2013-03-21 15:47:00,
2013-03-21 10:02:00,46.6,24.0,29.53,East,100,1.0,1.0,42,0.00,,,0.00,weatherlink.com 1.10,2013-03-21 16:02:00,
2013-03-21 10:17:00,47.9,25.0,29.53,South,191,2.0,2.0,41,0.00,,,0.00,weatherlink.com 1.10,2013-03-21 16:17:00,
2013-03-21 10:32:00,49.0,26.0,29.51,ESE,107,0.0,3.0,41,0.00,,,0.00,weatherlink.com 1.10,2013-03-21 16:32:00,
2013-03-21 10:47:00,51.0,25.0,29.50,ENE,73,3.0,5.0,36,0.00,,,0.00,weatherlink.com 1.10,2013-03-21 16:47:00,
2013-03-21 11:02:00,53.7,25.0,29.49,SSE,156,0.0,7.0,33,0.00,,,0.00,weatherlink.com 1.10,2013-03-21 17:02:00,
2013-03-21 11:17:00,55.9,26.0,29.48,WSW,256,5.0,8.0,32,0.00,,,0.00,weatherlink.com 1.10,2013-03-21 17:17:00,
2013-03-21 11:32:00,57.3,27.0,29.47,SW,225,1.0,9.0,32,0.00,,,0.00,weatherlink.com 1.10,2013-03-21 17:32:00,
2013-03-21 11:47:00,58.4,27.0,29.47,ENE,60,3.0,9.0,30,0.00,,,0.00,weatherlink.com 1.10,2013-03-21 17:47:00,
2013-03-21 12:02:00,58.8,27.0,29.45,ESE,102,2.0,9.0,30,0.00,,,0.00,weatherlink.com 1.10,2013-03-21 18:02:00,
2013-03-21 12:17:00,60.3,27.0,29.45,SSW,200,2.0,4.0,28,0.00,,,0.00,weatherlink.com 1.10,2013-03-21 18:17:00,
2013-03-21 12:32:00,61.5,26.0,29.44,SE,125,1.0,5.0,26,0.00,,,0.00,weatherlink.com 1.10,2013-03-21 18:32:00,
2013-03-21 12:47:00,61.8,24.0,29.43,SSE,160,0.0,5.0,24,0.00,,,0.00,weatherlink.com 1.10,2013-03-21 18:47:00,
2013-03-21 13:02:00,60.5,23.0,29.43,SSW,194,1.0,3.0,24,0.00,,,0.00,weatherlink.com 1.10,2013-03-21 19:02:00,
2013-03-21 13:17:00,59.1,23.0,29.42,WSW,243,0.0,4.0,25,0.00,,,0.00,weatherlink.com 1.10,2013-03-21 19:17:00,
2013-03-21 13:33:00,60.1,21.0,29.41,WSW,237,3.0,5.0,22,0.00,,,0.00,weatherlink.com 1.10,2013-03-21 19:33:00,
2013-03-21 13:48:00,59.3,21.0,29.41,North,356,4.0,8.0,23,0.00,,,0.00,weatherlink.com 1.10,2013-03-21 19:48:00,
2013-03-21 14:03:00,54.1,25.0,29.45,NNW,336,3.0,16.0,32,0.00,,,0.00,weatherlink.com 1.10,2013-03-21 20:03:00,
2013-03-21 14:18:00,52.5,24.0,29.47,NNW,342,4.0,12.0,33,0.00,,,0.00,weatherlink.com 1.10,2013-03-21 20:18:00,
2013-03-21 14:33:00,52.1,28.0,29.48,WNW,284,7.0,12.0,39,0.00,,,0.00,weatherlink.com 1.10,2013-03-21 20:33:00,
2013-03-21 14:48:00,50.1,32.0,29.50,NW,304,19.0,19.0,50,0.00,,,0.00,weatherlink.com 1.10,2013-03-21 20:48:00,
2013-03-21 15:03:00,48.0,33.0,29.51,North,352,3.0,17.0,57,0.00,,,0.00,weatherlink.com 1.10,2013-03-21 21:03:00,
2013-03-21 15:18:00,47.0,33.0,29.52,NE,49,3.0,11.0,58,0.00,,,0.00,weatherlink.com 1.10,2013-03-21 21:18:00,
2013-03-21 15:33:00,47.3,33.0,29.51,NW,319,5.0,8.0,58,0.00,,,0.00,weatherlink.com 1.10,2013-03-21 21:33:00,
2013-03-21 15:48:00,48.0,33.0,29.50,NNE,16,6.0,7.0,56,0.00,,,0.00,weatherlink.com 1.10,2013-03-21 21:48:00,
2013-03-21 16:03:00,47.6,33.0,29.51,NNE,13,2.0,9.0,58,0.00,,,0.00,weatherlink.com 1.10,2013-03-21 22:03:00,
2013-03-21 16:18:00,48.7,34.0,29.51,NNW,329,7.0,10.0,57,0.00,,,0.00,weatherlink.com 1.10,2013-03-21 22:18:00,
2013-03-21 16:33:00,49.0,35.0,29.52,North,5,6.0,8.0,58,0.00,,,0.00,weatherlink.com 1.10,2013-03-21 22:33:00,
2013-03-21 16:48:00,48.7,34.0,29.51,NNW,336,4.0,6.0,57,0.00,,,0.00,weatherlink.com 1.10,2013-03-21 22:48:00,
2013-03-21 17:03:00,50.1,34.0,29.51,ENE,63,5.0,6.0,55,0.00,,,0.00,weatherlink.com 1.10,2013-03-21 23:03:00,
2013-03-21 17:18:00,50.3,33.0,29.52,NE,55,1.0,5.0,52,0.00,,,0.00,weatherlink.com 1.10,2013-03-21 23:18:00,
2013-03-21 17:33:00,50.4,33.0,29.54,East,79,3.0,4.0,51,0.00,,,0.00,weatherlink.com 1.10,2013-03-21 23:33:00,
2013-03-21 17:48:00,49.6,33.0,29.55,ENE,67,2.0,7.0,53,0.00,,,0.00,weatherlink.com 1.10,2013-03-21 23:48:00,
2013-03-21 18:03:00,48.0,33.0,29.57,ENE,78,0.0,7.0,56,0.00,,,0.00,weatherlink.com 1.10,2013-03-22 00:03:00,
2013-03-21 18:18:00,47.0,32.0,29.58,NNW,348,3.0,5.0,56,0.00,,,0.00,weatherlink.com 1.10,2013-03-22 00:18:00,
2013-03-21 18:33:00,46.2,24.0,29.60,NNW,338,1.0,8.0,41,0.00,,,0.00,weatherlink.com 1.10,2013-03-22 00:33:00,
2013-03-21 18:48:00,46.0,11.0,29.61,NW,319,5.0,11.0,24,0.00,,,0.00,weatherlink.com 1.10,2013-03-22 00:48:00,
2013-03-21 19:03:00,45.4,10.0,29.63,NW,324,2.0,9.0,24,0.00,,,0.00,weatherlink.com 1.10,2013-03-22 01:03:00,
2013-03-21 19:18:00,44.8,10.0,29.63,North,352,8.0,11.0,24,0.00,,,0.00,weatherlink.com 1.10,2013-03-22 01:18:00,
2013-03-21 19:34:00,44.5,7.0,29.65,NW,322,5.0,12.0,21,0.00,,,0.00,weatherlink.com 1.10,2013-03-22 01:34:00,
2013-03-21 19:48:00,43.9,9.0,29.66,NW,321,3.0,9.0,24,0.00,,,0.00,weatherlink.com 1.10,2013-03-22 01:48:00,
2013-03-21 20:03:00,43.2,11.0,29.66,NNW,336,3.0,14.0,27,0.00,,,0.00,weatherlink.com 1.10,2013-03-22 02:03:00,
2013-03-21 20:18:00,42.9,12.0,29.66,WNW,302,6.0,17.0,28,0.00,,,0.00,weatherlink.com 1.10,2013-03-22 02:18:00,
2013-03-21 20:33:00,42.5,11.0,29.67,NNW,348,5.0,13.0,28,0.00,,,0.00,weatherlink.com 1.10,2013-03-22 02:33:00,
2013-03-21 20:48:00,42.1,11.0,29.69,NNW,333,8.0,10.0,28,0.00,,,0.00,weatherlink.com 1.10,2013-03-22 02:48:00,
2013-03-21 21:03:00,41.8,12.0,29.69,NNE,25,2.0,13.0,29,0.00,,,0.00,weatherlink.com 1.10,2013-03-22 03:03:00,
2013-03-21 21:18:00,41.9,12.0,29.69,NW,318,2.0,11.0,30,0.00,,,0.00,weatherlink.com 1.10,2013-03-22 03:18:00,
2013-03-21 21:33:00,41.7,12.0,29.69,NW,314,7.0,10.0,30,0.00,,,0.00,weatherlink.com 1.10,2013-03-22 03:33:00,
2013-03-21 21:48:00,41.5,12.0,29.70,NNW,338,5.0,12.0,30,0.00,,,0.00,weatherlink.com 1.10,2013-03-22 03:48:00,
2013-03-21 22:03:00,41.2,12.0,29.70,NW,316,3.0,13.0,30,0.00,,,0.00,weatherlink.com 1.10,2013-03-22 04:03:00,
2013-03-21 22:18:00,40.8,13.0,29.71,NW,312,3.0,13.0,32,0.00,,,0.00,weatherlink.com 1.10,2013-03-22 04:18:00,
2013-03-21 22:33:00,40.2,13.0,29.72,WNW,298,1.0,6.0,33,0.00,,,0.00,weatherlink.com 1.10,2013-03-22 04:33:00,
2013-03-21 22:48:00,39.8,12.0,29.73,NW,311,5.0,10.0,32,0.00,,,0.00,weatherlink.com 1.10,2013-03-22 04:48:00,
2013-03-21 23:03:00,39.4,12.0,29.73,NW,320,5.0,11.0,32,0.00,,,0.00,weatherlink.com 1.10,2013-03-22 05:03:00,
2013-03-21 23:18:00,39.1,11.0,29.74,North,352,4.0,9.0,32,0.00,,,0.00,weatherlink.com 1.10,2013-03-22 05:18:00,
2013-03-21 23:33:00,38.9,11.0,29.75,NNW,345,3.0,9.0,32,0.00,,,0.00,weatherlink.com 1.10,2013-03-22 05:33:00,
2013-03-21 23:48:00,38.8,11.0,29.76,North,359,2.0,9.0,32,0.00,,,0.00,weatherlink.com 1.10,2013-03-22 05:48:00,